sensor_id;sensor_type;location;lat;lon;timestamp;P1;durP1;ratioP1;P2;durP2;ratioP2
9420;SDS011;4749;51.398;5.466;2022-11-20T00:01:29;13.23;;;8.83;;
9420;SDS011;4749;51.398;5.466;2022-11-20T00:03:57;12.53;;;8.70;;
9420;SDS011;4749;51.398;5.466;2022-11-20T00:06:25;12.40;;;8.90;;
9420;SDS011;4749;51.398;5.466;2022-11-20T00:08:55;13.10;;;9.20;;
9420;SDS011;4749;51.398;5.466;2022-11-20T00:11:26;12.70;;;8.13;;
9420;SDS011;4749;51.398;5.466;2022-11-20T00:13:56;13.13;;;8.97;;
9420;SDS011;4749;51.398;5.466;2022-11-20T00:16:27;12.97;;;9.00;;
9420;SDS011;4749;51.398;5.466;2022-11-20T00:18:57;11.77;;;8.80;;
9420;SDS011;4749;51.398;5.466;2022-11-20T00:21:27;12.37;;;9.10;;
9420;SDS011;4749;51.398;5.466;2022-11-20T00:23:56;12.63;;;8.50;;
9420;SDS011;4749;51.398;5.466;2022-11-20T00:26:24;14.00;;;9.53;;
9420;SDS011;4749;51.398;5.466;2022-11-20T00:28:53;12.53;;;9.27;;
9420;SDS011;4749;51.398;5.466;2022-11-20T00:31:23;11.70;;;8.67;;
9420;SDS011;4749;51.398;5.466;2022-11-20T00:33:50;13.70;;;9.17;;
9420;SDS011;4749;51.398;5.466;2022-11-20T00:36:19;13.27;;;9.10;;
9420;SDS011;4749;51.398;5.466;2022-11-20T00:38:56;13.70;;;9.47;;
9420;SDS011;4749;51.398;5.466;2022-11-20T00:41:25;14.73;;;9.67;;
9420;SDS011;4749;51.398;5.466;2022-11-20T00:43:54;14.80;;;9.87;;
9420;SDS011;4749;51.398;5.466;2022-11-20T00:46:23;13.53;;;8.90;;
9420;SDS011;4749;51.398;5.466;2022-11-20T00:48:53;14.33;;;9.77;;
9420;SDS011;4749;51.398;5.466;2022-11-20T00:51:21;15.03;;;9.67;;
9420;SDS011;4749;51.398;5.466;2022-11-20T00:53:50;14.67;;;10.13;;
9420;SDS011;4749;51.398;5.466;2022-11-20T00:56:18;16.37;;;9.97;;
9420;SDS011;4749;51.398;5.466;2022-11-20T00:58:47;13.33;;;9.57;;
9420;SDS011;4749;51.398;5.466;2022-11-20T01:01:16;14.13;;;9.93;;
9420;SDS011;4749;51.398;5.466;2022-11-20T01:03:47;12.87;;;9.33;;
9420;SDS011;4749;51.398;5.466;2022-11-20T01:06:22;12.43;;;9.07;;
9420;SDS011;4749;51.398;5.466;2022-11-20T01:08:53;14.43;;;9.90;;
9420;SDS011;4749;51.398;5.466;2022-11-20T01:11:24;13.80;;;9.73;;
9420;SDS011;4749;51.398;5.466;2022-11-20T01:13:57;13.93;;;9.33;;
9420;SDS011;4749;51.398;5.466;2022-11-20T01:16:28;12.27;;;9.10;;
9420;SDS011;4749;51.398;5.466;2022-11-20T01:19:02;13.27;;;9.57;;
9420;SDS011;4749;51.398;5.466;2022-11-20T01:21:33;15.13;;;9.67;;
9420;SDS011;4749;51.398;5.466;2022-11-20T01:24:04;13.13;;;9.30;;
9420;SDS011;4749;51.398;5.466;2022-11-20T01:26:35;13.87;;;9.13;;
9420;SDS011;4749;51.398;5.466;2022-11-20T01:29:04;14.37;;;9.40;;
9420;SDS011;4749;51.398;5.466;2022-11-20T01:31:34;11.53;;;9.03;;
9420;SDS011;4749;51.398;5.466;2022-11-20T01:34:07;14.60;;;9.93;;
9420;SDS011;4749;51.398;5.466;2022-11-20T01:36:44;12.60;;;9.30;;
9420;SDS011;4749;51.398;5.466;2022-11-20T01:39:16;13.63;;;9.40;;
9420;SDS011;4749;51.398;5.466;2022-11-20T01:41:52;14.93;;;9.90;;
9420;SDS011;4749;51.398;5.466;2022-11-20T01:47:42;14.93;;;9.50;;
9420;SDS011;4749;51.398;5.466;2022-11-20T01:50:23;15.87;;;10.20;;
9420;SDS011;4749;51.398;5.466;2022-11-20T01:52:56;12.63;;;9.00;;
9420;SDS011;4749;51.398;5.466;2022-11-20T01:55:51;13.80;;;9.17;;
9420;SDS011;4749;51.398;5.466;2022-11-20T01:58:44;13.00;;;9.33;;
9420;SDS011;4749;51.398;5.466;2022-11-20T02:01:23;13.33;;;9.90;;
9420;SDS011;4749;51.398;5.466;2022-11-20T02:04:02;14.13;;;10.03;;
9420;SDS011;4749;51.398;5.466;2022-11-20T02:06:35;14.40;;;9.30;;
9420;SDS011;4749;51.398;5.466;2022-11-20T02:09:13;16.07;;;10.23;;
9420;SDS011;4749;51.398;5.466;2022-11-20T02:11:51;15.50;;;10.17;;
9420;SDS011;4749;51.398;5.466;2022-11-20T02:14:19;14.87;;;9.37;;
9420;SDS011;4749;51.398;5.466;2022-11-20T02:16:49;13.20;;;9.27;;
9420;SDS011;4749;51.398;5.466;2022-11-20T02:19:31;13.17;;;9.50;;
9420;SDS011;4749;51.398;5.466;2022-11-20T02:22:02;16.43;;;10.43;;
9420;SDS011;4749;51.398;5.466;2022-11-20T02:24:55;13.40;;;9.07;;
9420;SDS011;4749;51.398;5.466;2022-11-20T02:27:29;13.60;;;9.43;;
9420;SDS011;4749;51.398;5.466;2022-11-20T02:29:57;13.37;;;9.47;;
9420;SDS011;4749;51.398;5.466;2022-11-20T02:32:31;12.90;;;9.27;;
9420;SDS011;4749;51.398;5.466;2022-11-20T02:37:47;14.03;;;10.07;;
9420;SDS011;4749;51.398;5.466;2022-11-20T02:40:19;14.20;;;9.33;;
9420;SDS011;4749;51.398;5.466;2022-11-20T02:42:47;13.77;;;10.37;;
9420;SDS011;4749;51.398;5.466;2022-11-20T02:45:18;14.33;;;10.07;;
9420;SDS011;4749;51.398;5.466;2022-11-20T02:47:46;14.40;;;10.07;;
9420;SDS011;4749;51.398;5.466;2022-11-20T02:50:14;14.07;;;9.57;;
9420;SDS011;4749;51.398;5.466;2022-11-20T02:52:43;12.67;;;9.33;;
9420;SDS011;4749;51.398;5.466;2022-11-20T02:55:11;14.00;;;9.97;;
9420;SDS011;4749;51.398;5.466;2022-11-20T02:57:38;14.70;;;10.33;;
9420;SDS011;4749;51.398;5.466;2022-11-20T03:00:08;12.70;;;9.77;;
9420;SDS011;4749;51.398;5.466;2022-11-20T03:02:46;12.40;;;9.30;;
9420;SDS011;4749;51.398;5.466;2022-11-20T03:05:14;14.00;;;9.90;;
9420;SDS011;4749;51.398;5.466;2022-11-20T03:07:52;16.17;;;10.50;;
9420;SDS011;4749;51.398;5.466;2022-11-20T03:10:22;13.70;;;9.07;;
9420;SDS011;4749;51.398;5.466;2022-11-20T03:12:56;13.37;;;10.17;;
9420;SDS011;4749;51.398;5.466;2022-11-20T03:15:46;14.77;;;9.67;;
9420;SDS011;4749;51.398;5.466;2022-11-20T03:18:45;13.53;;;9.50;;
9420;SDS011;4749;51.398;5.466;2022-11-20T03:21:22;14.17;;;9.90;;
9420;SDS011;4749;51.398;5.466;2022-11-20T03:24:34;14.53;;;10.03;;
9420;SDS011;4749;51.398;5.466;2022-11-20T03:27:16;15.60;;;9.97;;
9420;SDS011;4749;51.398;5.466;2022-11-20T03:29:44;14.90;;;9.43;;
9420;SDS011;4749;51.398;5.466;2022-11-20T03:32:12;15.17;;;9.90;;
9420;SDS011;4749;51.398;5.466;2022-11-20T03:34:51;14.10;;;9.83;;
9420;SDS011;4749;51.398;5.466;2022-11-20T03:37:24;14.43;;;9.73;;
9420;SDS011;4749;51.398;5.466;2022-11-20T03:39:55;14.90;;;9.23;;
9420;SDS011;4749;51.398;5.466;2022-11-20T03:42:23;12.73;;;9.87;;
9420;SDS011;4749;51.398;5.466;2022-11-20T03:45:13;13.83;;;9.97;;
9420;SDS011;4749;51.398;5.466;2022-11-20T03:48:05;14.73;;;9.70;;
9420;SDS011;4749;51.398;5.466;2022-11-20T03:51:22;13.53;;;10.23;;
9420;SDS011;4749;51.398;5.466;2022-11-20T03:54:15;14.03;;;10.70;;
9420;SDS011;4749;51.398;5.466;2022-11-20T03:56:51;15.17;;;10.00;;
9420;SDS011;4749;51.398;5.466;2022-11-20T03:59:47;13.60;;;9.93;;
9420;SDS011;4749;51.398;5.466;2022-11-20T04:02:51;15.10;;;10.10;;
9420;SDS011;4749;51.398;5.466;2022-11-20T04:06:06;14.57;;;10.20;;
9420;SDS011;4749;51.398;5.466;2022-11-20T04:09:12;14.13;;;9.70;;
9420;SDS011;4749;51.398;5.466;2022-11-20T04:12:45;16.27;;;10.77;;
9420;SDS011;4749;51.398;5.466;2022-11-20T04:15:45;14.80;;;10.13;;
9420;SDS011;4749;51.398;5.466;2022-11-20T04:18:21;14.57;;;10.57;;
9420;SDS011;4749;51.398;5.466;2022-11-20T04:20:51;13.60;;;9.23;;
9420;SDS011;4749;51.398;5.466;2022-11-20T04:23:19;15.23;;;10.10;;
9420;SDS011;4749;51.398;5.466;2022-11-20T04:25:54;15.53;;;10.63;;
9420;SDS011;4749;51.398;5.466;2022-11-20T04:28:22;17.47;;;11.63;;
9420;SDS011;4749;51.398;5.466;2022-11-20T04:30:50;15.07;;;10.33;;
9420;SDS011;4749;51.398;5.466;2022-11-20T04:33:22;15.40;;;10.00;;
9420;SDS011;4749;51.398;5.466;2022-11-20T04:36:05;14.63;;;10.77;;
9420;SDS011;4749;51.398;5.466;2022-11-20T04:38:38;15.03;;;10.77;;
9420;SDS011;4749;51.398;5.466;2022-11-20T04:41:07;15.47;;;10.70;;
9420;SDS011;4749;51.398;5.466;2022-11-20T04:43:45;18.63;;;12.03;;
9420;SDS011;4749;51.398;5.466;2022-11-20T04:46:17;15.27;;;10.80;;
9420;SDS011;4749;51.398;5.466;2022-11-20T04:48:46;14.70;;;10.83;;
9420;SDS011;4749;51.398;5.466;2022-11-20T04:51:15;16.63;;;11.57;;
9420;SDS011;4749;51.398;5.466;2022-11-20T04:53:48;15.27;;;10.97;;
9420;SDS011;4749;51.398;5.466;2022-11-20T04:56:25;16.40;;;10.90;;
9420;SDS011;4749;51.398;5.466;2022-11-20T04:59:03;13.97;;;10.00;;
9420;SDS011;4749;51.398;5.466;2022-11-20T05:02:12;14.93;;;10.90;;
9420;SDS011;4749;51.398;5.466;2022-11-20T05:04:46;16.50;;;10.57;;
9420;SDS011;4749;51.398;5.466;2022-11-20T05:07:17;16.50;;;10.43;;
9420;SDS011;4749;51.398;5.466;2022-11-20T05:09:49;15.50;;;11.07;;
9420;SDS011;4749;51.398;5.466;2022-11-20T05:12:20;13.83;;;9.80;;
9420;SDS011;4749;51.398;5.466;2022-11-20T05:15:01;13.83;;;10.10;;
9420;SDS011;4749;51.398;5.466;2022-11-20T05:17:29;14.53;;;9.80;;
9420;SDS011;4749;51.398;5.466;2022-11-20T05:19:57;17.00;;;11.17;;
9420;SDS011;4749;51.398;5.466;2022-11-20T05:22:28;17.53;;;10.20;;
9420;SDS011;4749;51.398;5.466;2022-11-20T05:25:01;16.20;;;10.67;;
9420;SDS011;4749;51.398;5.466;2022-11-20T05:27:29;15.03;;;10.77;;
9420;SDS011;4749;51.398;5.466;2022-11-20T05:29:58;17.33;;;10.97;;
9420;SDS011;4749;51.398;5.466;2022-11-20T05:32:31;17.50;;;11.13;;
9420;SDS011;4749;51.398;5.466;2022-11-20T05:34:58;22.40;;;11.37;;
9420;SDS011;4749;51.398;5.466;2022-11-20T05:37:35;18.10;;;11.00;;
9420;SDS011;4749;51.398;5.466;2022-11-20T05:40:03;17.90;;;10.90;;
9420;SDS011;4749;51.398;5.466;2022-11-20T05:42:32;16.17;;;10.30;;
9420;SDS011;4749;51.398;5.466;2022-11-20T05:45:02;16.50;;;10.87;;
9420;SDS011;4749;51.398;5.466;2022-11-20T05:47:34;15.10;;;11.27;;
9420;SDS011;4749;51.398;5.466;2022-11-20T05:50:02;16.00;;;11.00;;
9420;SDS011;4749;51.398;5.466;2022-11-20T05:52:36;14.17;;;10.20;;
9420;SDS011;4749;51.398;5.466;2022-11-20T05:55:08;15.57;;;10.90;;
9420;SDS011;4749;51.398;5.466;2022-11-20T05:57:39;13.93;;;9.73;;
9420;SDS011;4749;51.398;5.466;2022-11-20T06:00:34;17.23;;;11.43;;
9420;SDS011;4749;51.398;5.466;2022-11-20T06:03:02;15.53;;;11.10;;
9420;SDS011;4749;51.398;5.466;2022-11-20T06:05:30;14.73;;;10.77;;
9420;SDS011;4749;51.398;5.466;2022-11-20T06:08:03;14.90;;;10.17;;
9420;SDS011;4749;51.398;5.466;2022-11-20T06:10:34;14.37;;;10.10;;
9420;SDS011;4749;51.398;5.466;2022-11-20T06:13:09;17.67;;;10.27;;
9420;SDS011;4749;51.398;5.466;2022-11-20T06:15:40;15.03;;;10.17;;
9420;SDS011;4749;51.398;5.466;2022-11-20T06:18:08;16.23;;;10.53;;
9420;SDS011;4749;51.398;5.466;2022-11-20T06:20:39;16.97;;;11.40;;
9420;SDS011;4749;51.398;5.466;2022-11-20T06:23:20;14.60;;;10.10;;
9420;SDS011;4749;51.398;5.466;2022-11-20T06:25:47;13.33;;;10.47;;
9420;SDS011;4749;51.398;5.466;2022-11-20T06:28:18;15.20;;;10.57;;
9420;SDS011;4749;51.398;5.466;2022-11-20T06:30:51;12.37;;;9.60;;
9420;SDS011;4749;51.398;5.466;2022-11-20T06:33:19;15.30;;;10.47;;
9420;SDS011;4749;51.398;5.466;2022-11-20T06:35:47;15.33;;;11.00;;
9420;SDS011;4749;51.398;5.466;2022-11-20T06:38:14;15.03;;;10.97;;
9420;SDS011;4749;51.398;5.466;2022-11-20T06:40:44;14.33;;;10.60;;
9420;SDS011;4749;51.398;5.466;2022-11-20T06:43:15;14.47;;;10.30;;
9420;SDS011;4749;51.398;5.466;2022-11-20T06:45:51;15.67;;;10.43;;
9420;SDS011;4749;51.398;5.466;2022-11-20T06:48:25;14.30;;;10.47;;
9420;SDS011;4749;51.398;5.466;2022-11-20T06:50:54;15.30;;;10.40;;
9420;SDS011;4749;51.398;5.466;2022-11-20T06:53:28;16.47;;;11.20;;
9420;SDS011;4749;51.398;5.466;2022-11-20T06:55:56;15.13;;;9.93;;
9420;SDS011;4749;51.398;5.466;2022-11-20T06:58:26;14.70;;;9.80;;
9420;SDS011;4749;51.398;5.466;2022-11-20T07:00:58;15.87;;;10.83;;
9420;SDS011;4749;51.398;5.466;2022-11-20T07:03:29;15.37;;;10.80;;
9420;SDS011;4749;51.398;5.466;2022-11-20T07:05:57;13.70;;;10.33;;
9420;SDS011;4749;51.398;5.466;2022-11-20T07:08:26;16.23;;;11.00;;
9420;SDS011;4749;51.398;5.466;2022-11-20T07:10:56;13.87;;;10.90;;
9420;SDS011;4749;51.398;5.466;2022-11-20T07:13:30;14.90;;;11.10;;
9420;SDS011;4749;51.398;5.466;2022-11-20T07:15:59;16.07;;;10.60;;
9420;SDS011;4749;51.398;5.466;2022-11-20T07:18:33;17.40;;;11.03;;
9420;SDS011;4749;51.398;5.466;2022-11-20T07:21:04;14.33;;;10.50;;
9420;SDS011;4749;51.398;5.466;2022-11-20T07:23:35;14.90;;;10.90;;
9420;SDS011;4749;51.398;5.466;2022-11-20T07:26:07;16.93;;;11.70;;
9420;SDS011;4749;51.398;5.466;2022-11-20T07:28:37;17.23;;;10.40;;
9420;SDS011;4749;51.398;5.466;2022-11-20T07:31:11;14.37;;;10.07;;
9420;SDS011;4749;51.398;5.466;2022-11-20T07:33:45;15.33;;;10.43;;
9420;SDS011;4749;51.398;5.466;2022-11-20T07:36:15;16.37;;;11.20;;
9420;SDS011;4749;51.398;5.466;2022-11-20T07:38:43;15.27;;;10.63;;
9420;SDS011;4749;51.398;5.466;2022-11-20T07:41:11;17.07;;;11.57;;
9420;SDS011;4749;51.398;5.466;2022-11-20T07:43:39;15.17;;;10.20;;
9420;SDS011;4749;51.398;5.466;2022-11-20T07:46:07;16.17;;;11.33;;
9420;SDS011;4749;51.398;5.466;2022-11-20T07:48:34;17.10;;;11.57;;
9420;SDS011;4749;51.398;5.466;2022-11-20T07:51:02;15.07;;;10.57;;
9420;SDS011;4749;51.398;5.466;2022-11-20T07:53:29;19.70;;;11.33;;
9420;SDS011;4749;51.398;5.466;2022-11-20T07:55:59;18.60;;;11.70;;
9420;SDS011;4749;51.398;5.466;2022-11-20T07:58:28;16.60;;;11.80;;
9420;SDS011;4749;51.398;5.466;2022-11-20T08:00:56;17.90;;;11.27;;
9420;SDS011;4749;51.398;5.466;2022-11-20T08:03:23;18.17;;;12.10;;
9420;SDS011;4749;51.398;5.466;2022-11-20T08:05:51;15.90;;;11.73;;
9420;SDS011;4749;51.398;5.466;2022-11-20T08:08:18;16.23;;;11.70;;
9420;SDS011;4749;51.398;5.466;2022-11-20T08:10:46;16.47;;;11.30;;
9420;SDS011;4749;51.398;5.466;2022-11-20T08:13:13;17.00;;;12.20;;
9420;SDS011;4749;51.398;5.466;2022-11-20T08:15:59;16.83;;;11.93;;
9420;SDS011;4749;51.398;5.466;2022-11-20T08:18:26;15.20;;;10.60;;
9420;SDS011;4749;51.398;5.466;2022-11-20T08:20:57;21.77;;;12.87;;
9420;SDS011;4749;51.398;5.466;2022-11-20T08:23:29;20.07;;;12.47;;
9420;SDS011;4749;51.398;5.466;2022-11-20T08:25:56;16.83;;;11.83;;
9420;SDS011;4749;51.398;5.466;2022-11-20T08:28:23;15.67;;;11.27;;
9420;SDS011;4749;51.398;5.466;2022-11-20T08:30:50;15.30;;;11.67;;
9420;SDS011;4749;51.398;5.466;2022-11-20T08:33:23;17.50;;;11.47;;
9420;SDS011;4749;51.398;5.466;2022-11-20T08:35:50;15.37;;;11.40;;
9420;SDS011;4749;51.398;5.466;2022-11-20T08:38:17;16.77;;;11.77;;
9420;SDS011;4749;51.398;5.466;2022-11-20T08:40:44;18.83;;;11.93;;
9420;SDS011;4749;51.398;5.466;2022-11-20T08:43:32;16.53;;;11.53;;
9420;SDS011;4749;51.398;5.466;2022-11-20T08:45:59;16.77;;;12.07;;
9420;SDS011;4749;51.398;5.466;2022-11-20T08:48:27;17.53;;;11.63;;
9420;SDS011;4749;51.398;5.466;2022-11-20T08:50:57;16.70;;;12.50;;
9420;SDS011;4749;51.398;5.466;2022-11-20T08:53:26;20.93;;;12.90;;
9420;SDS011;4749;51.398;5.466;2022-11-20T08:55:54;17.13;;;12.03;;
9420;SDS011;4749;51.398;5.466;2022-11-20T08:58:22;22.13;;;13.73;;
9420;SDS011;4749;51.398;5.466;2022-11-20T09:00:49;21.63;;;14.20;;
9420;SDS011;4749;51.398;5.466;2022-11-20T09:03:17;18.80;;;13.00;;
9420;SDS011;4749;51.398;5.466;2022-11-20T09:05:44;23.90;;;14.67;;
9420;SDS011;4749;51.398;5.466;2022-11-20T09:08:11;22.27;;;14.50;;
9420;SDS011;4749;51.398;5.466;2022-11-20T09:10:38;26.43;;;16.03;;
9420;SDS011;4749;51.398;5.466;2022-11-20T09:13:09;25.30;;;15.77;;
9420;SDS011;4749;51.398;5.466;2022-11-20T09:15:36;29.57;;;17.50;;
9420;SDS011;4749;51.398;5.466;2022-11-20T09:18:03;31.10;;;18.77;;
9420;SDS011;4749;51.398;5.466;2022-11-20T09:20:31;35.20;;;18.83;;
9420;SDS011;4749;51.398;5.466;2022-11-20T09:22:58;33.53;;;19.30;;
9420;SDS011;4749;51.398;5.466;2022-11-20T09:25:25;36.40;;;20.60;;
9420;SDS011;4749;51.398;5.466;2022-11-20T09:27:56;34.63;;;20.33;;
9420;SDS011;4749;51.398;5.466;2022-11-20T09:30:24;38.80;;;20.97;;
9420;SDS011;4749;51.398;5.466;2022-11-20T09:32:53;37.53;;;21.03;;
9420;SDS011;4749;51.398;5.466;2022-11-20T09:35:20;37.57;;;21.07;;
9420;SDS011;4749;51.398;5.466;2022-11-20T09:37:47;40.57;;;22.63;;
9420;SDS011;4749;51.398;5.466;2022-11-20T09:40:22;40.80;;;22.03;;
9420;SDS011;4749;51.398;5.466;2022-11-20T09:46:25;39.97;;;21.77;;
9420;SDS011;4749;51.398;5.466;2022-11-20T09:55:18;36.70;;;22.77;;
9420;SDS011;4749;51.398;5.466;2022-11-20T09:57:46;43.67;;;23.20;;
9420;SDS011;4749;51.398;5.466;2022-11-20T10:00:17;36.93;;;21.70;;
9420;SDS011;4749;51.398;5.466;2022-11-20T10:02:55;40.47;;;23.77;;
9420;SDS011;4749;51.398;5.466;2022-11-20T10:05:51;39.67;;;22.70;;
9420;SDS011;4749;51.398;5.466;2022-11-20T10:11:50;40.43;;;22.77;;
9420;SDS011;4749;51.398;5.466;2022-11-20T10:18:08;34.13;;;20.70;;
9420;SDS011;4749;51.398;5.466;2022-11-20T10:21:02;38.37;;;20.60;;
9420;SDS011;4749;51.398;5.466;2022-11-20T10:29:16;38.13;;;21.53;;
9420;SDS011;4749;51.398;5.466;2022-11-20T10:31:56;30.67;;;19.83;;
9420;SDS011;4749;51.398;5.466;2022-11-20T10:34:30;33.13;;;19.53;;
9420;SDS011;4749;51.398;5.466;2022-11-20T10:37:31;34.97;;;21.10;;
9420;SDS011;4749;51.398;5.466;2022-11-20T10:43:25;30.27;;;20.47;;
9420;SDS011;4749;51.398;5.466;2022-11-20T10:46:03;35.67;;;22.03;;
9420;SDS011;4749;51.398;5.466;2022-11-20T10:48:36;35.40;;;21.47;;
9420;SDS011;4749;51.398;5.466;2022-11-20T10:51:21;35.97;;;22.03;;
9420;SDS011;4749;51.398;5.466;2022-11-20T10:56:42;35.43;;;21.77;;
9420;SDS011;4749;51.398;5.466;2022-11-20T11:00:04;35.90;;;21.07;;
9420;SDS011;4749;51.398;5.466;2022-11-20T11:02:16;39.90;;;22.53;;
9420;SDS011;4749;51.398;5.466;2022-11-20T11:04:47;36.83;;;21.87;;
9420;SDS011;4749;51.398;5.466;2022-11-20T11:10:01;39.10;;;22.13;;
9420;SDS011;4749;51.398;5.466;2022-11-20T11:12:52;35.40;;;22.03;;
9420;SDS011;4749;51.398;5.466;2022-11-20T11:15:27;38.67;;;22.10;;
9420;SDS011;4749;51.398;5.466;2022-11-20T11:18:10;39.70;;;21.80;;
9420;SDS011;4749;51.398;5.466;2022-11-20T11:20:38;41.83;;;22.23;;
9420;SDS011;4749;51.398;5.466;2022-11-20T11:23:10;38.03;;;22.17;;
9420;SDS011;4749;51.398;5.466;2022-11-20T11:25:57;39.83;;;23.00;;
9420;SDS011;4749;51.398;5.466;2022-11-20T11:28:27;39.63;;;22.43;;
9420;SDS011;4749;51.398;5.466;2022-11-20T11:30:55;39.03;;;21.60;;
9420;SDS011;4749;51.398;5.466;2022-11-20T11:33:31;39.17;;;22.27;;
9420;SDS011;4749;51.398;5.466;2022-11-20T11:36:16;40.23;;;21.97;;
9420;SDS011;4749;51.398;5.466;2022-11-20T11:38:51;39.60;;;23.33;;
9420;SDS011;4749;51.398;5.466;2022-11-20T11:41:21;37.63;;;22.03;;
9420;SDS011;4749;51.398;5.466;2022-11-20T11:43:57;43.13;;;23.00;;
9420;SDS011;4749;51.398;5.466;2022-11-20T11:46:57;36.27;;;21.00;;
9420;SDS011;4749;51.398;5.466;2022-11-20T11:49:25;36.80;;;21.10;;
9420;SDS011;4749;51.398;5.466;2022-11-20T11:54:52;42.57;;;22.37;;
9420;SDS011;4749;51.398;5.466;2022-11-20T11:57:38;38.17;;;21.30;;
9420;SDS011;4749;51.398;5.466;2022-11-20T12:00:21;40.93;;;22.37;;
9420;SDS011;4749;51.398;5.466;2022-11-20T12:02:53;36.83;;;21.30;;
9420;SDS011;4749;51.398;5.466;2022-11-20T12:06:09;37.03;;;21.50;;
9420;SDS011;4749;51.398;5.466;2022-11-20T12:08:42;37.47;;;22.20;;
9420;SDS011;4749;51.398;5.466;2022-11-20T12:11:20;41.60;;;21.73;;
9420;SDS011;4749;51.398;5.466;2022-11-20T12:16:58;37.07;;;21.90;;
9420;SDS011;4749;51.398;5.466;2022-11-20T12:19:28;39.00;;;21.33;;
9420;SDS011;4749;51.398;5.466;2022-11-20T12:27:32;39.77;;;21.67;;
9420;SDS011;4749;51.398;5.466;2022-11-20T12:30:15;38.87;;;21.60;;
9420;SDS011;4749;51.398;5.466;2022-11-20T12:32:51;38.40;;;22.27;;
9420;SDS011;4749;51.398;5.466;2022-11-20T12:44:41;44.03;;;23.13;;
9420;SDS011;4749;51.398;5.466;2022-11-20T12:50:36;40.73;;;22.80;;
9420;SDS011;4749;51.398;5.466;2022-11-20T12:57:00;44.10;;;22.83;;
9420;SDS011;4749;51.398;5.466;2022-11-20T13:00:01;41.63;;;22.27;;
9420;SDS011;4749;51.398;5.466;2022-11-20T13:08:25;39.47;;;22.80;;
9420;SDS011;4749;51.398;5.466;2022-11-20T13:11:31;43.23;;;23.60;;
9420;SDS011;4749;51.398;5.466;2022-11-20T13:14:13;41.27;;;21.83;;
9420;SDS011;4749;51.398;5.466;2022-11-20T13:17:16;44.20;;;23.50;;
9420;SDS011;4749;51.398;5.466;2022-11-20T13:20:22;41.10;;;23.40;;
9420;SDS011;4749;51.398;5.466;2022-11-20T13:22:53;41.53;;;22.77;;
9420;SDS011;4749;51.398;5.466;2022-11-20T13:28:03;41.03;;;22.90;;
9420;SDS011;4749;51.398;5.466;2022-11-20T13:30:47;39.40;;;22.37;;
9420;SDS011;4749;51.398;5.466;2022-11-20T13:36:05;38.63;;;22.97;;
9420;SDS011;4749;51.398;5.466;2022-11-20T13:38:56;41.07;;;23.43;;
9420;SDS011;4749;51.398;5.466;2022-11-20T13:46:52;45.17;;;23.17;;
9420;SDS011;4749;51.398;5.466;2022-11-20T13:55:02;43.63;;;22.80;;
9420;SDS011;4749;51.398;5.466;2022-11-20T14:01:14;42.87;;;22.73;;
9420;SDS011;4749;51.398;5.466;2022-11-20T14:03:48;39.23;;;22.67;;
9420;SDS011;4749;51.398;5.466;2022-11-20T14:06:33;45.37;;;24.17;;
9420;SDS011;4749;51.398;5.466;2022-11-20T14:09:13;39.27;;;22.07;;
9420;SDS011;4749;51.398;5.466;2022-11-20T14:11:55;43.03;;;23.40;;
9420;SDS011;4749;51.398;5.466;2022-11-20T14:14:24;43.17;;;23.20;;
9420;SDS011;4749;51.398;5.466;2022-11-20T14:19:45;42.43;;;23.03;;
9420;SDS011;4749;51.398;5.466;2022-11-20T14:22:18;38.00;;;22.40;;
9420;SDS011;4749;51.398;5.466;2022-11-20T14:25:01;36.97;;;21.20;;
9420;SDS011;4749;51.398;5.466;2022-11-20T14:27:33;41.37;;;22.97;;
9420;SDS011;4749;51.398;5.466;2022-11-20T14:30:20;44.13;;;23.33;;
9420;SDS011;4749;51.398;5.466;2022-11-20T14:32:51;42.73;;;22.83;;
9420;SDS011;4749;51.398;5.466;2022-11-20T14:35:25;45.30;;;24.33;;
9420;SDS011;4749;51.398;5.466;2022-11-20T14:37:56;45.13;;;24.13;;
9420;SDS011;4749;51.398;5.466;2022-11-20T14:40:31;43.43;;;24.17;;
9420;SDS011;4749;51.398;5.466;2022-11-20T14:43:15;44.00;;;23.77;;
9420;SDS011;4749;51.398;5.466;2022-11-20T14:45:56;48.17;;;24.40;;
9420;SDS011;4749;51.398;5.466;2022-11-20T14:51:23;44.33;;;24.30;;
9420;SDS011;4749;51.398;5.466;2022-11-20T14:54:11;43.97;;;23.40;;
9420;SDS011;4749;51.398;5.466;2022-11-20T14:59:29;45.37;;;23.37;;
9420;SDS011;4749;51.398;5.466;2022-11-20T15:02:05;46.47;;;23.57;;
9420;SDS011;4749;51.398;5.466;2022-11-20T15:04:46;48.63;;;24.33;;
9420;SDS011;4749;51.398;5.466;2022-11-20T15:07:24;50.30;;;23.83;;
9420;SDS011;4749;51.398;5.466;2022-11-20T15:12:49;46.50;;;24.30;;
9420;SDS011;4749;51.398;5.466;2022-11-20T15:15:24;44.40;;;23.47;;
9420;SDS011;4749;51.398;5.466;2022-11-20T15:18:02;47.70;;;24.90;;
9420;SDS011;4749;51.398;5.466;2022-11-20T15:20:33;52.90;;;24.23;;
9420;SDS011;4749;51.398;5.466;2022-11-20T15:23:07;49.10;;;25.67;;
9420;SDS011;4749;51.398;5.466;2022-11-20T15:25:40;50.53;;;23.80;;
9420;SDS011;4749;51.398;5.466;2022-11-20T15:28:16;48.00;;;24.07;;
9420;SDS011;4749;51.398;5.466;2022-11-20T15:30:54;47.70;;;24.17;;
9420;SDS011;4749;51.398;5.466;2022-11-20T15:33:22;47.80;;;23.83;;
9420;SDS011;4749;51.398;5.466;2022-11-20T15:35:50;45.30;;;23.90;;
9420;SDS011;4749;51.398;5.466;2022-11-20T15:38:24;48.10;;;24.00;;
9420;SDS011;4749;51.398;5.466;2022-11-20T15:40:51;45.67;;;23.70;;
9420;SDS011;4749;51.398;5.466;2022-11-20T15:43:19;46.60;;;22.20;;
9420;SDS011;4749;51.398;5.466;2022-11-20T15:45:46;41.13;;;21.43;;
9420;SDS011;4749;51.398;5.466;2022-11-20T15:48:23;46.60;;;22.33;;
9420;SDS011;4749;51.398;5.466;2022-11-20T15:51:10;46.47;;;21.97;;
9420;SDS011;4749;51.398;5.466;2022-11-20T15:53:52;45.50;;;22.70;;
9420;SDS011;4749;51.398;5.466;2022-11-20T15:56:21;39.83;;;19.43;;
9420;SDS011;4749;51.398;5.466;2022-11-20T15:58:48;30.37;;;16.77;;
9420;SDS011;4749;51.398;5.466;2022-11-20T16:01:17;33.60;;;15.07;;
9420;SDS011;4749;51.398;5.466;2022-11-20T16:03:47;30.63;;;14.37;;
9420;SDS011;4749;51.398;5.466;2022-11-20T16:06:14;25.73;;;13.87;;
9420;SDS011;4749;51.398;5.466;2022-11-20T16:08:44;23.23;;;12.40;;
9420;SDS011;4749;51.398;5.466;2022-11-20T16:11:12;22.00;;;11.17;;
9420;SDS011;4749;51.398;5.466;2022-11-20T16:13:41;21.57;;;11.00;;
9420;SDS011;4749;51.398;5.466;2022-11-20T16:19:00;20.00;;;9.63;;
9420;SDS011;4749;51.398;5.466;2022-11-20T16:21:28;17.93;;;8.57;;
9420;SDS011;4749;51.398;5.466;2022-11-20T16:23:58;17.50;;;7.93;;
9420;SDS011;4749;51.398;5.466;2022-11-20T16:26:30;12.77;;;7.37;;
9420;SDS011;4749;51.398;5.466;2022-11-20T16:28:58;12.23;;;6.63;;
9420;SDS011;4749;51.398;5.466;2022-11-20T16:31:26;9.27;;;5.50;;
9420;SDS011;4749;51.398;5.466;2022-11-20T16:33:57;8.50;;;5.27;;
9420;SDS011;4749;51.398;5.466;2022-11-20T16:36:32;8.97;;;5.47;;
9420;SDS011;4749;51.398;5.466;2022-11-20T16:39:01;7.63;;;5.10;;
9420;SDS011;4749;51.398;5.466;2022-11-20T16:41:30;8.83;;;5.40;;
9420;SDS011;4749;51.398;5.466;2022-11-20T16:44:02;7.27;;;4.80;;
9420;SDS011;4749;51.398;5.466;2022-11-20T16:46:35;6.17;;;4.27;;
9420;SDS011;4749;51.398;5.466;2022-11-20T16:49:04;5.60;;;4.20;;
9420;SDS011;4749;51.398;5.466;2022-11-20T16:51:37;5.73;;;3.93;;
9420;SDS011;4749;51.398;5.466;2022-11-20T16:54:04;4.77;;;3.50;;
9420;SDS011;4749;51.398;5.466;2022-11-20T16:56:34;4.50;;;3.97;;
9420;SDS011;4749;51.398;5.466;2022-11-20T16:59:01;5.53;;;4.03;;
9420;SDS011;4749;51.398;5.466;2022-11-20T17:01:29;5.10;;;4.07;;
9420;SDS011;4749;51.398;5.466;2022-11-20T17:04:01;4.97;;;3.80;;
9420;SDS011;4749;51.398;5.466;2022-11-20T17:06:34;6.23;;;4.03;;
9420;SDS011;4749;51.398;5.466;2022-11-20T17:09:05;16.27;;;11.97;;
9420;SDS011;4749;51.398;5.466;2022-11-20T17:11:36;11.33;;;7.13;;
9420;SDS011;4749;51.398;5.466;2022-11-20T17:14:04;9.60;;;5.70;;
9420;SDS011;4749;51.398;5.466;2022-11-20T17:16:34;8.53;;;5.83;;
9420;SDS011;4749;51.398;5.466;2022-11-20T17:19:02;8.03;;;5.33;;
9420;SDS011;4749;51.398;5.466;2022-11-20T17:21:31;7.53;;;6.17;;